Partly Cloudy Current Weather (METAR) For Antalya Airport

All times on the weather descriptions are local

Observed at 19:50 - (37 mins ago)

Partly Cloudy

15°C

Partly Cloudy
Clouds: Scattered Clouds at 3,000ft
Wind: 030° at 05 knots
Visibility: Greater than 10km
QNH: 1011
Dew Point: 11°C
Runway in Use: Runways 36L/C/R

Sunrise Today: 06:43
Sunset Today: 19:18

Forecast Weather (TAF) For Antalya Airport

Issued at 03:00 - (6 hrs 32 mins ago)


Runway in Use: Unable to determine, wind is clam

Forecast valid until 03:00 on Tuesday

METAR/TAF RAW METAR / TAF

LTAI 301650Z 03005KT 9999 SCT030 15/11 Q1011 NOSIG

Weather Widget

Put weather from any of our airports on your website with our weather widget.

Find Another Search

Airport Search


Please Wait Please Wait - Loading
Close
Close

Login

Username:

Password:

Remember Me:

Remember me on this computer

Forgotten your password? Get a reset password sent to your registered e-mail address

Close

User Private Message

Subject:

Message: